Hardin, Illinois
Current Conditions -  °F | °C
As of 8:54 AM on Monday 24 Nov 2014 (Local Time) from KSET Reporting Station
Overcast Overcast  
Wind Chill: 26°   Ceiling: 2700
Heat Index: 37°   Visibility: 10mi
Dew Point: 29°   Wind: 22mph
Humidity: 73%   Direction: 260°W
Pressure: 29.6"   Gusts: 32mph
Location:  39.16°N, 90.62°W
Report Text: KSET 241454Z AUTO 26019G28KT 10SM OVC027 03/M02 A2960 RMK AO2 PK WND 27031/1413 SLP022 T00281017 53052
Loading
Personal Weather Stations






























Interactive Weather Map New forecast layout! Learn more

10-Day Weather Forecast

Advertisements
Track Severe Weather on mobile